Time;durP1;ratioP1;P1;durP2;ratioP2;P2;SDS_P1;SDS_P2;PMS_P1;PMS_P2;Temp;Humidity;BMP_temperature;BMP_pressure;BME280_temperature;BME280_humidity;BME280_pressure;Samples;Min_cycle;Max_cycle;Signal;HPM_P1;HPM_P2
2021/09/25 00:00:11;;;;;;;0.97;0.97;;;;;;;14.77;65.49;98990.16;6279620;22;41545;-83
2021/09/25 00:02:39;;;;;;;1.83;1.40;;;;;;;14.68;65.51;98989.06;6254970;22;39122;-83
2021/09/25 00:05:10;;;;;;;1.60;1.50;;;;;;;14.41;65.38;98953.84;6254577;22;40742;-82
2021/09/25 00:07:37;;;;;;;1.70;1.00;;;;;;;14.60;65.76;98995.91;6281241;22;43638;-85
2021/09/25 00:10:07;;;;;;;1.10;1.07;;;;;;;14.61;65.61;99003.78;6272229;22;42602;-82
2021/09/25 00:12:34;;;;;;;1.07;0.90;;;;;;;14.51;66.42;98989.47;6280457;22;39065;-82
2021/09/25 00:15:02;;;;;;;1.40;1.30;;;;;;;14.58;66.42;98998.72;6297666;22;42644;-83
2021/09/25 00:17:30;;;;;;;2.30;1.30;;;;;;;14.56;66.63;99003.31;6254680;22;42863;-84
2021/09/25 00:19:58;;;;;;;1.30;1.20;;;;;;;14.52;67.13;99004.50;6280155;22;43199;-82
2021/09/25 00:22:27;;;;;;;1.60;1.50;;;;;;;14.47;67.18;99004.00;6279331;22;40373;-80
2021/09/25 00:24:55;;;;;;;2.30;1.53;;;;;;;14.29;67.13;98970.75;6255413;22;40872;-86
2021/09/25 00:27:24;;;;;;;1.10;1.00;;;;;;;14.44;66.89;98998.91;6280747;22;43708;-83
2021/09/25 00:29:55;;;;;;;1.80;1.03;;;;;;;14.25;66.54;98972.78;6280269;22;43074;-81
2021/09/25 00:32:23;;;;;;;1.70;1.37;;;;;;;14.38;67.27;98994.00;6300529;22;40249;-83
2021/09/25 00:34:51;;;;;;;1.40;1.17;;;;;;;14.29;67.19;98990.25;6275622;22;41792;-84
2021/09/25 00:37:19;;;;;;;1.33;1.20;;;;;;;14.27;66.96;98993.97;6278641;22;41833;-82
2021/09/25 00:39:48;;;;;;;1.97;1.43;;;;;;;14.31;66.75;98998.13;6278937;22;41445;-80
2021/09/25 00:42:16;;;;;;;1.23;1.13;;;;;;;14.25;66.91;98996.75;6254213;22;39229;-85
2021/09/25 00:44:43;;;;;;;2.03;1.83;;;;;;;14.17;67.08;98988.50;6280101;22;42097;-83
2021/09/25 00:47:12;;;;;;;2.73;1.47;;;;;;;14.16;67.21;98996.59;6253428;22;41762;-83
2021/09/25 00:49:40;;;;;;;1.37;1.23;;;;;;;14.20;66.76;99003.41;6254659;22;41639;-83
2021/09/25 00:52:09;;;;;;;1.50;1.30;;;;;;;14.16;67.16;99004.59;6279399;22;38984;-81
2021/09/25 00:54:37;;;;;;;1.77;1.47;;;;;;;14.09;66.98;99000.69;6281385;22;42084;-84
2021/09/25 00:57:06;;;;;;;2.07;1.40;;;;;;;13.98;66.97;98989.00;6264780;22;42245;-82
2021/09/25 00:59:41;;;;;;;1.43;1.23;;;;;;;13.93;67.05;98991.19;6322993;22;43353;-80
2021/09/25 01:02:11;;;;;;;1.00;1.00;;;;;;;13.91;67.13;98993.09;6270864;22;38893;-82
2021/09/25 01:04:39;;;;;;;1.27;1.07;;;;;;;13.97;67.22;99003.28;6293878;22;42276;-82
2021/09/25 01:07:06;;;;;;;1.87;1.30;;;;;;;13.92;66.81;99005.44;6266749;22;42438;-81
2021/09/25 01:09:34;;;;;;;2.37;1.17;;;;;;;13.78;66.71;98994.97;6292461;22;40926;-82
2021/09/25 01:12:02;;;;;;;1.57;1.40;;;;;;;13.82;66.94;98999.13;6283503;22;40920;-80
2021/09/25 01:14:31;;;;;;;1.70;1.20;;;;;;;13.76;66.71;98994.22;6282522;22;40961;-82
2021/09/25 01:17:06;;;;;;;2.70;1.33;;;;;;;13.72;66.78;99006.06;6281851;22;42115;-84
2021/09/25 01:19:34;;;;;;;1.63;1.53;;;;;;;13.68;67.10;98999.25;6282412;22;42611;-85
2021/09/25 01:22:04;;;;;;;2.03;1.47;;;;;;;13.55;67.03;98982.50;6309520;22;40540;-80
2021/09/25 01:24:32;;;;;;;1.77;1.27;;;;;;;13.65;67.06;99003.00;6281749;22;40845;-83
2021/09/25 01:27:00;;;;;;;2.73;1.23;;;;;;;13.48;67.19;98982.06;6288085;22;43803;-83
2021/09/25 01:29:29;;;;;;;1.67;1.47;;;;;;;13.52;67.02;98993.34;6285915;22;41181;-85
2021/09/25 01:31:57;;;;;;;1.10;1.00;;;;;;;13.57;67.12;99004.53;6282313;22;39039;-85
2021/09/25 01:34:32;;;;;;;1.57;1.43;;;;;;;13.40;67.27;98983.59;6256941;22;42057;-82
2021/09/25 01:37:00;;;;;;;1.53;1.17;;;;;;;13.40;67.19;98975.59;6281297;22;43840;-82
2021/09/25 01:39:30;;;;;;;1.57;1.30;;;;;;;13.36;67.47;98974.13;6256607;22;41466;-81
2021/09/25 01:41:59;;;;;;;2.30;1.90;;;;;;;13.46;67.34;98996.47;6280729;22;40383;-83
2021/09/25 01:44:27;;;;;;;1.10;1.00;;;;;;;13.42;67.54;98994.97;6257066;22;40902;-82
2021/09/25 01:46:55;;;;;;;1.40;1.20;;;;;;;13.39;67.45;98996.03;6308032;22;43197;-80
2021/09/25 01:49:24;;;;;;;1.10;1.00;;;;;;;13.13;67.64;98954.47;6281612;22;42160;-85
2021/09/25 01:51:53;;;;;;;2.00;1.13;;;;;;;13.28;67.52;98986.16;6281823;22;39859;-82
2021/09/25 01:54:21;;;;;;;1.80;1.30;;;;;;;13.35;67.47;98993.72;6256821;22;42121;-84
2021/09/25 01:56:50;;;;;;;1.43;1.10;;;;;;;13.32;67.56;98996.59;6280712;22;43754;-83
2021/09/25 01:59:18;;;;;;;1.20;1.10;;;;;;;13.29;67.79;99000.31;6308711;22;42868;-85
2021/09/25 02:01:45;;;;;;;1.53;1.10;;;;;;;13.15;67.65;98977.38;6282029;22;39613;-84
2021/09/25 02:04:13;;;;;;;1.03;1.03;;;;;;;13.19;68.08;98994.81;6281060;22;41099;-83
2021/09/25 02:06:41;;;;;;;1.53;1.30;;;;;;;13.13;68.30;98984.56;6309032;22;42907;-81
2021/09/25 02:09:15;;;;;;;1.60;1.13;;;;;;;13.20;68.02;99001.84;6255880;22;41372;-81
2021/09/25 02:11:42;;;;;;;1.93;1.40;;;;;;;13.18;68.12;99003.75;6281565;22;40307;-83
2021/09/25 02:14:18;;;;;;;1.10;0.93;;;;;;;13.15;68.33;99005.75;6281427;22;42190;-80
2021/09/25 02:16:46;;;;;;;3.57;2.17;;;;;;;13.09;68.27;98998.19;6309179;22;43096;-85
2021/09/25 02:19:13;;;;;;;1.37;1.07;;;;;;;13.13;68.42;99007.66;6281733;22;41344;-81
2021/09/25 02:21:41;;;;;;;1.40;1.30;;;;;;;13.12;68.68;99008.59;6280917;22;40722;-83
2021/09/25 02:24:09;;;;;;;2.37;1.70;;;;;;;13.09;69.48;99004.38;6281311;22;41665;-85
2021/09/25 02:26:45;;;;;;;1.53;1.43;;;;;;;13.02;69.28;99002.22;6255637;22;42055;-85
2021/09/25 02:29:12;;;;;;;1.90;1.40;;;;;;;13.08;68.91;99013.31;6280862;22;42398;-83
2021/09/25 02:31:41;;;;;;;2.70;1.40;;;;;;;13.08;68.91;99002.66;6282436;22;39394;-85
2021/09/25 02:34:09;;;;;;;2.10;1.37;;;;;;;13.06;69.10;98999.25;6255494;22;40825;-83
2021/09/25 02:36:37;;;;;;;1.60;1.33;;;;;;;12.97;69.09;98986.63;6281785;22;42346;-84
2021/09/25 02:39:04;;;;;;;2.67;1.70;;;;;;;13.03;69.06;99010.09;6281168;22;41576;-81
2021/09/25 02:41:32;;;;;;;1.50;1.40;;;;;;;13.01;69.07;99004.03;6281853;22;40098;-81
2021/09/25 02:44:00;;;;;;;1.17;1.07;;;;;;;13.01;68.80;99009.34;6255599;22;41147;-81
2021/09/25 02:46:28;;;;;;;1.23;1.13;;;;;;;12.92;69.08;99002.03;6280911;22;43869;-83
2021/09/25 02:48:57;;;;;;;1.63;1.53;;;;;;;12.97;69.13;99015.00;6255152;22;41647;-81
2021/09/25 02:51:25;;;;;;;1.53;1.33;;;;;;;12.94;68.99;99021.38;6255824;22;40509;-82
2021/09/25 02:53:53;;;;;;;1.20;1.10;;;;;;;12.83;68.79;99003.53;6254993;22;41707;-83
2021/09/25 02:56:21;;;;;;;2.03;1.47;;;;;;;12.78;68.80;99000.31;6275937;22;41959;-85
2021/09/25 02:58:48;;;;;;;1.60;1.27;;;;;;;12.88;69.50;99009.34;6268378;22;42462;-80
2021/09/25 03:01:16;;;;;;;1.53;1.13;;;;;;;12.88;69.53;99016.47;6255965;22;38956;-82
2021/09/25 03:03:44;;;;;;;1.50;1.30;;;;;;;12.83;69.76;99010.66;6305872;22;42039;-80
2021/09/25 03:06:19;;;;;;;2.07;1.40;;;;;;;12.74;69.70;99008.59;6256280;22;42147;-83
2021/09/25 03:08:54;;;;;;;1.47;1.37;;;;;;;12.81;69.75;99009.91;6250916;22;41599;-82
2021/09/25 03:11:22;;;;;;;2.23;1.20;;;;;;;12.79;69.55;99017.13;6250142;22;39999;-83
2021/09/25 03:13:49;;;;;;;2.80;1.57;;;;;;;12.69;69.70;99000.97;6269452;22;42672;-81
2021/09/25 03:16:17;;;;;;;3.60;1.00;;;;;;;12.72;70.08;98997.25;6255449;22;41810;-84
2021/09/25 03:18:52;;;;;;;1.30;1.17;;;;;;;12.74;69.68;99013.91;6281829;22;42723;-85
2021/09/25 03:21:21;;;;;;;1.50;1.20;;;;;;;12.59;69.68;98995.44;6308188;22;40949;-84
2021/09/25 03:23:49;;;;;;;1.93;1.20;;;;;;;12.69;69.76;99011.59;6281077;22;40906;-85
2021/09/25 03:26:16;;;;;;;1.10;1.00;;;;;;;12.58;69.54;98995.53;6308618;22;43153;-82
2021/09/25 03:28:44;;;;;;;1.83;1.60;;;;;;;12.65;69.50;99017.22;6281869;22;42405;-82
2021/09/25 03:31:12;;;;;;;1.23;1.13;;;;;;;12.54;69.32;99007.31;6281924;22;40368;-83
2021/09/25 03:33:40;;;;;;;1.50;1.40;;;;;;;12.56;69.17;99016.91;6309332;22;42088;-81
2021/09/25 03:36:08;;;;;;;1.27;1.00;;;;;;;12.46;69.27;99005.19;6281537;22;43059;-81
2021/09/25 03:38:43;;;;;;;1.13;0.90;;;;;;;12.53;69.61;99019.75;6278701;22;41358;-83
2021/09/25 03:41:11;;;;;;;1.53;1.13;;;;;;;12.46;69.35;98999.88;6279984;22;39967;-83
2021/09/25 03:43:39;;;;;;;1.67;0.93;;;;;;;12.49;69.47;99015.59;6256218;22;42125;-84
2021/09/25 03:46:07;;;;;;;1.43;1.13;;;;;;;12.39;69.43;98997.72;6308968;22;43262;-83
2021/09/25 03:48:34;;;;;;;1.20;1.00;;;;;;;12.36;69.34;98993.50;6278542;22;41706;-84
2021/09/25 03:51:08;;;;;;;1.63;0.97;;;;;;;12.38;69.57;98999.53;6281219;22;40353;-83
2021/09/25 03:53:36;;;;;;;1.20;1.10;;;;;;;12.33;69.63;98992.84;6281084;22;41037;-81
2021/09/25 03:56:07;;;;;;;1.20;1.00;;;;;;;12.37;69.40;98995.19;6280894;22;42012;-84
2021/09/25 03:58:43;;;;;;;2.67;1.50;;;;;;;12.38;69.83;99002.19;6281464;22;42328;-83
2021/09/25 04:01:12;;;;;;;1.43;1.30;;;;;;;12.38;69.38;99006.66;6307336;22;40289;-82
2021/09/25 04:03:41;;;;;;;1.30;0.90;;;;;;;12.36;69.93;99011.25;6282111;22;41619;-83
2021/09/25 04:06:09;;;;;;;1.63;1.00;;;;;;;12.32;69.74;99013.25;6279992;22;42227;-81
2021/09/25 04:08:36;;;;;;;1.23;1.13;;;;;;;12.32;69.60;99017.72;6255297;22;41609;-83
2021/09/25 04:11:06;;;;;;;1.67;1.30;;;;;;;12.29;69.91;99010.78;6281638;22;39418;-82
2021/09/25 04:13:34;;;;;;;1.27;1.17;;;;;;;12.28;69.97;99017.03;6280479;22;41928;-80
2021/09/25 04:16:02;;;;;;;1.10;0.97;;;;;;;12.16;69.84;98997.47;6309253;22;42972;-82
2021/09/25 04:18:37;;;;;;;2.00;1.07;;;;;;;12.24;70.05;99019.03;6255190;22;42471;-81
2021/09/25 04:21:05;;;;;;;0.80;0.80;;;;;;;11.93;69.65;98979.56;6255851;22;40382;-81
2021/09/25 04:23:33;;;;;;;2.97;1.30;;;;;;;12.18;69.54;99015.97;6280824;22;40595;-81
2021/09/25 04:26:08;;;;;;;1.27;1.17;;;;;;;12.16;69.67;99020.53;6281054;22;42952;-84
2021/09/25 04:28:36;;;;;;;1.00;1.00;;;;;;;12.12;69.51;99022.53;6281085;22;41276;-82
2021/09/25 04:31:04;;;;;;;0.93;0.93;;;;;;;12.06;69.48;99014.13;6255517;22;39398;-81
2021/09/25 04:33:38;;;;;;;1.60;1.40;;;;;;;12.06;69.38;99027.41;6279462;22;42856;-81
2021/09/25 04:36:06;;;;;;;1.57;1.27;;;;;;;11.90;69.51;99006.31;6255370;22;43290;-81
2021/09/25 04:38:34;;;;;;;1.27;1.00;;;;;;;11.98;69.84;99013.78;6254729;22;42217;-84
2021/09/25 04:41:01;;;;;;;1.90;1.17;;;;;;;11.97;70.02;99012.09;6281386;22;39036;-81
2021/09/25 04:43:31;;;;;;;1.43;1.20;;;;;;;11.95;70.09;99019.28;6281884;22;42093;-80
2021/09/25 04:45:59;;;;;;;2.07;1.53;;;;;;;11.94;70.09;99014.94;6281092;22;42884;-81
2021/09/25 04:48:27;;;;;;;2.47;1.77;;;;;;;11.93;69.85;99018.53;6255026;22;42432;-80
2021/09/25 04:50:55;;;;;;;1.20;1.00;;;;;;;11.91;70.03;99018.63;6280106;22;41040;-80
2021/09/25 04:53:22;;;;;;;1.30;1.20;;;;;;;11.91;69.88;99017.78;6275617;22;40710;-82
2021/09/25 04:55:50;;;;;;;1.33;1.23;;;;;;;11.88;70.59;99029.44;6281159;22;43398;-80
2021/09/25 04:58:18;;;;;;;1.60;1.30;;;;;;;11.90;70.19;99021.38;6254965;22;42652;-84
2021/09/25 05:00:47;;;;;;;1.50;1.10;;;;;;;11.90;70.38;99032.84;6281915;22;39223;-80
2021/09/25 05:03:15;;;;;;;2.57;1.57;;;;;;;11.88;70.39;99030.28;6280112;22;42071;-80
2021/09/25 05:05:43;;;;;;;1.30;1.10;;;;;;;11.82;70.19;99008.63;6255374;22;42981;-81
2021/09/25 05:08:10;;;;;;;1.30;1.20;;;;;;;11.86;70.17;99021.59;6254277;22;41289;-82
2021/09/25 05:10:38;;;;;;;1.80;1.23;;;;;;;11.86;70.44;99026.91;6281151;22;39816;-83
2021/09/25 05:13:05;;;;;;;1.70;1.13;;;;;;;11.85;70.51;99022.56;6254625;22;40768;-82
2021/09/25 05:15:33;;;;;;;1.50;1.20;;;;;;;11.74;70.19;99003.78;6280107;22;42936;-81
2021/09/25 05:18:02;;;;;;;2.97;1.50;;;;;;;11.74;70.12;99010.91;6308136;22;42576;-82
2021/09/25 05:20:30;;;;;;;1.67;1.40;;;;;;;11.78;70.24;99023.88;6280186;22;39046;-81
2021/09/25 05:22:58;;;;;;;1.33;1.23;;;;;;;11.80;69.95;99022.00;6279233;22;41222;-83
2021/09/25 05:25:25;;;;;;;1.90;1.33;;;;;;;11.50;70.06;98976.16;6275692;22;41721;-81
2021/09/25 05:27:53;;;;;;;1.60;1.30;;;;;;;11.66;70.08;99014.03;6307868;22;42644;-82
2021/09/25 05:30:21;;;;;;;1.67;1.40;;;;;;;11.77;70.01;99030.13;6252072;22;39558;-83
2021/09/25 05:32:48;;;;;;;1.70;1.20;;;;;;;11.80;69.97;99042.38;6279829;22;41911;-82
2021/09/25 05:35:18;;;;;;;1.63;1.20;;;;;;;11.82;69.99;99036.00;6253000;22;42089;-82
2021/09/25 05:37:46;;;;;;;1.37;1.27;;;;;;;11.84;70.19;99034.13;6254220;22;41522;-81
2021/09/25 05:40:15;;;;;;;2.07;1.23;;;;;;;11.75;70.25;99018.75;6255324;22;39620;-80
2021/09/25 05:42:49;;;;;;;1.47;1.30;;;;;;;11.87;70.18;99033.03;6281113;22;42699;-82
2021/09/25 05:45:17;;;;;;;1.17;1.07;;;;;;;11.90;69.93;99032.00;6256103;22;43235;-80
2021/09/25 05:47:45;;;;;;;2.53;1.73;;;;;;;11.94;70.22;99034.34;6255486;22;41400;-80
2021/09/25 05:50:14;;;;;;;1.53;1.20;;;;;;;11.98;70.53;99037.69;6256155;22;39662;-79
2021/09/25 05:52:43;;;;;;;2.50;1.50;;;;;;;11.93;70.48;99021.19;6256156;22;42266;-79
2021/09/25 05:55:11;;;;;;;1.33;1.10;;;;;;;11.97;70.10;99015.59;6254247;22;41810;-80
2021/09/25 05:57:38;;;;;;;1.20;1.10;;;;;;;12.10;70.21;99029.75;6281658;22;42463;-82
2021/09/25 06:00:09;;;;;;;1.77;1.30;;;;;;;12.13;70.52;99023.38;6254822;22;40360;-82
2021/09/25 06:02:41;;;;;;;1.33;1.13;;;;;;;12.19;70.23;99020.31;6308844;22;41813;-80
2021/09/25 06:05:11;;;;;;;3.03;1.57;;;;;;;12.23;70.66;99024.50;6253031;22;42294;-81
2021/09/25 06:07:39;;;;;;;1.23;1.10;;;;;;;12.29;70.41;99023.22;6281094;22;42698;-83
2021/09/25 06:10:10;;;;;;;1.77;1.43;;;;;;;12.33;70.49;99030.03;6254989;22;41622;-83
2021/09/25 06:12:37;;;;;;;1.87;1.50;;;;;;;12.41;70.43;99030.34;6280992;22;41905;-82
2021/09/25 06:15:07;;;;;;;2.17;1.37;;;;;;;12.48;70.67;99035.19;6279983;22;42094;-83
2021/09/25 06:17:42;;;;;;;1.50;1.40;;;;;;;12.57;70.59;99037.19;6280194;22;42035;-81
2021/09/25 06:20:11;;;;;;;1.53;1.20;;;;;;;12.72;70.49;99037.13;6280350;22;40269;-81
2021/09/25 06:22:39;;;;;;;1.73;1.30;;;;;;;12.73;70.18;99022.88;6307707;22;42082;-83
2021/09/25 06:25:09;;;;;;;2.37;1.03;;;;;;;12.91;70.10;99037.53;6306363;22;43581;-83
2021/09/25 06:27:39;;;;;;;1.37;1.23;;;;;;;13.00;70.10;99030.72;6280238;22;41308;-82
2021/09/25 06:30:08;;;;;;;1.90;1.30;;;;;;;12.98;70.03;99022.03;6279123;22;39439;-84
2021/09/25 06:32:35;;;;;;;2.93;1.50;;;;;;;13.05;69.93;99037.44;6253956;22;40870;-81
2021/09/25 06:35:03;;;;;;;1.93;1.60;;;;;;;13.08;69.67;99034.56;6280180;22;43360;-82
2021/09/25 06:37:38;;;;;;;1.57;1.47;;;;;;;12.98;69.53;99000.78;6252842;22;42310;-81
2021/09/25 06:40:10;;;;;;;1.53;1.40;;;;;;;13.10;69.74;99019.38;6278836;22;40281;-82
2021/09/25 06:42:40;;;;;;;2.83;1.40;;;;;;;13.26;69.65;99032.44;6254724;22;41642;-81
2021/09/25 06:45:09;;;;;;;1.90;1.40;;;;;;;13.11;69.76;99007.75;6254673;22;41719;-82
2021/09/25 06:47:36;;;;;;;1.27;1.10;;;;;;;13.35;69.40;99046.94;6280834;22;41394;-81
2021/09/25 06:50:05;;;;;;;2.50;1.47;;;;;;;13.32;69.58;99031.19;6270807;22;39046;-81
2021/09/25 06:52:39;;;;;;;1.50;1.40;;;;;;;13.47;69.38;99051.38;6254022;22;41860;-82
2021/09/25 06:55:08;;;;;;;1.60;1.33;;;;;;;13.54;69.66;99041.97;6253905;22;43107;-82
2021/09/25 06:57:36;;;;;;;2.10;1.70;;;;;;;13.87;69.20;99034.22;6281058;22;42655;-83
2021/09/25 07:00:07;;;;;;;2.37;1.87;;;;;;;14.07;68.99;99043.41;6254526;22;39139;-81
2021/09/25 07:02:37;;;;;;;2.77;1.47;;;;;;;13.99;69.19;99027.13;6254170;22;40906;-82
2021/09/25 07:05:11;;;;;;;3.13;2.33;;;;;;;14.06;68.99;99027.56;6253847;22;42197;-82
2021/09/25 07:07:40;;;;;;;2.10;1.60;;;;;;;14.19;69.11;99042.50;6281285;22;42681;-81
2021/09/25 07:10:11;;;;;;;2.67;2.00;;;;;;;14.23;68.86;99040.44;6254692;22;38853;-82
2021/09/25 07:12:45;;;;;;;1.80;1.70;;;;;;;14.35;68.77;99044.84;6280546;22;42734;-82
2021/09/25 07:15:15;;;;;;;2.20;1.73;;;;;;;14.44;68.66;99038.91;6254686;22;42098;-82
2021/09/25 07:17:43;;;;;;;3.57;2.30;;;;;;;14.59;68.83;99037.72;6254666;22;41350;-83
2021/09/25 07:20:12;;;;;;;2.80;2.30;;;;;;;15.09;68.74;99022.28;6278984;22;39729;-82
2021/09/25 07:22:41;;;;;;;3.10;2.80;;;;;;;16.39;67.71;99007.28;6279632;22;41668;-82
2021/09/25 07:25:10;;;;;;;3.37;2.70;;;;;;;17.54;66.79;99020.50;6253908;22;42752;-82
2021/09/25 07:27:44;;;;;;;3.03;2.47;;;;;;;18.74;64.46;99046.25;6254309;22;41653;-83
2021/09/25 07:30:12;;;;;;;3.50;2.77;;;;;;;19.94;60.96;99056.19;6307440;22;39995;-83
2021/09/25 07:32:48;;;;;;;3.73;2.97;;;;;;;21.35;56.78;99065.28;6253302;22;40924;-84
2021/09/25 07:35:17;;;;;;;3.70;3.07;;;;;;;23.40;51.37;99093.44;6280616;22;43617;-82
2021/09/25 07:37:45;;;;;;;3.87;2.67;;;;;;;25.15;46.87;99128.19;6279974;22;43086;-83
2021/09/25 07:40:13;;;;;;;2.90;2.50;;;;;;;24.73;46.52;99106.97;6279210;22;39762;-83
2021/09/25 07:42:41;;;;;;;3.57;2.23;;;;;;;24.15;46.64;99124.53;6280021;22;40911;-83
2021/09/25 07:45:10;;;;;;;3.23;2.77;;;;;;;24.02;46.96;99109.88;6253347;22;41851;-82
2021/09/25 07:47:38;;;;;;;3.00;2.70;;;;;;;23.70;47.31;99119.78;6229169;22;41460;-83
2021/09/25 07:50:09;;;;;;;3.47;2.90;;;;;;;23.16;47.71;99105.97;6254077;22;39689;-83
2021/09/25 07:52:41;;;;;;;4.00;3.40;;;;;;;22.79;48.76;99119.13;6279550;22;42243;-82
2021/09/25 07:55:10;;;;;;;2.87;2.23;;;;;;;22.20;50.32;99118.28;6278684;22;41624;-83
2021/09/25 07:57:38;;;;;;;2.60;2.33;;;;;;;21.73;51.13;99121.44;6307462;22;42765;-83
2021/09/25 08:00:09;;;;;;;2.23;2.03;;;;;;;21.19;52.18;99089.41;6253844;22;40439;-82
2021/09/25 08:02:44;;;;;;;3.63;2.60;;;;;;;21.00;52.93;99102.03;6278802;22;41972;-82
2021/09/25 08:05:15;;;;;;;3.67;3.03;;;;;;;21.00;53.46;99102.03;6253289;22;41950;-83
2021/09/25 08:07:43;;;;;;;3.00;2.50;;;;;;;21.54;52.39;99094.69;6253916;22;41553;-84
2021/09/25 08:10:13;;;;;;;4.57;3.47;;;;;;;22.70;51.08;99103.91;6252500;22;40212;-84
2021/09/25 08:12:42;;;;;;;3.37;3.07;;;;;;;24.27;49.06;99116.88;6278916;22;42588;-83
2021/09/25 08:15:11;;;;;;;3.30;3.00;;;;;;;26.69;44.07;99150.09;6253798;22;42804;-83
2021/09/25 08:17:39;;;;;;;2.67;2.37;;;;;;;28.74;39.31;99152.50;6304932;22;42301;-83
2021/09/25 08:20:10;;;;;;;4.13;2.93;;;;;;;29.14;38.19;99165.22;6281434;22;39474;-85
2021/09/25 08:22:47;;;;;;;3.70;2.90;;;;;;;28.74;38.34;99169.69;6255112;22;41270;-83
2021/09/25 08:25:15;;;;;;;3.40;3.10;;;;;;;30.01;36.63;99169.66;6280702;22;42080;-83
2021/09/25 08:27:44;;;;;;;3.30;3.00;;;;;;;31.56;33.59;99191.25;6279298;22;43095;-82
2021/09/25 08:30:13;;;;;;;3.83;3.40;;;;;;;32.11;32.63;99202.38;6279789;22;40073;-82
2021/09/25 08:32:41;;;;;;;3.27;2.97;;;;;;;32.95;31.68;99209.03;6255515;22;41471;-81
2021/09/25 08:35:10;;;;;;;2.53;2.03;;;;;;;33.94;30.75;99202.06;6279613;22;43503;-82
2021/09/25 08:37:40;;;;;;;3.05;2.80;;;;;;;35.57;28.80;99212.69;6254242;22;41206;-81
2021/09/25 08:40:14;;;;;;;2.50;2.30;;;;;;;37.04;26.48;99217.63;6279950;22;40033;-82
2021/09/25 08:42:42;;;;;;;2.67;2.47;;;;;;;37.30;25.85;99222.38;6254765;22;40692;-82
2021/09/25 08:45:10;;;;;;;2.90;2.67;;;;;;;37.26;26.06;99218.44;6280429;22;43184;-82
2021/09/25 08:47:37;;;;;;;3.20;2.65;;;;;;;36.99;26.15;99225.84;6254625;22;42139;-82
2021/09/25 08:50:07;;;;;;;2.47;2.28;;;;;;;35.86;27.35;99200.50;6296121;22;39923;-82
2021/09/25 08:52:35;;;;;;;3.10;2.80;;;;;;;34.68;28.49;99211.44;6279305;22;42485;-83
2021/09/25 08:55:05;;;;;;;3.97;3.20;;;;;;;33.97;29.36;99190.59;6253432;22;42594;-82
2021/09/25 08:57:34;;;;;;;3.43;3.13;;;;;;;34.01;29.24;99191.75;6254011;22;41609;-83
2021/09/25 09:00:35;;;;;;;3.30;2.80;;;;;;;35.19;27.78;99194.88;6279465;22;40406;-83
2021/09/25 09:03:25;;;;;;;2.40;2.20;;;;;;;34.84;27.85;99196.97;6156438;23;42911;-82
2021/09/25 09:05:55;;;;;;;2.57;2.30;;;;;;;34.12;28.91;99183.53;6272698;22;42133;-82
2021/09/25 09:08:23;;;;;;;3.10;2.80;;;;;;;33.30;29.77;99163.34;6253596;22;43303;-83
2021/09/25 09:10:51;;;;;;;3.03;2.77;;;;;;;32.51;30.83;99147.13;6279833;22;41074;-84
2021/09/25 09:13:21;;;;;;;2.93;2.70;;;;;;;31.51;31.83;99130.84;6305850;22;41964;-85
2021/09/25 09:15:51;;;;;;;5.27;2.63;;;;;;;30.86;33.15;99149.41;6279274;22;42642;-84
2021/09/25 09:18:21;;;;;;;4.10;3.17;;;;;;;30.03;34.04;99143.00;6307669;22;42795;-82
2021/09/25 09:21:07;;;;;;;2.70;2.50;;;;;;;29.27;34.78;99135.22;6254609;22;39147;-82
2021/09/25 09:23:36;;;;;;;3.07;2.77;;;;;;;28.68;36.06;99121.47;6281735;22;41868;-82
2021/09/25 09:26:06;;;;;;;2.90;2.60;;;;;;;28.27;36.73;99118.78;6255041;22;43032;-82
2021/09/25 09:28:38;;;;;;;3.80;2.87;;;;;;;27.88;37.72;99130.28;6316508;22;42449;-83
2021/09/25 09:31:07;;;;;;;3.10;2.47;;;;;;;27.56;38.18;99122.75;6308621;22;40655;-83
2021/09/25 09:33:38;;;;;;;2.60;2.40;;;;;;;27.19;38.92;99113.84;6306992;22;41716;-83
2021/09/25 09:36:17;;;;;;;2.53;2.33;;;;;;;26.97;39.31;99128.44;6307064;22;43970;-82
2021/09/25 09:38:49;;;;;;;2.97;1.97;;;;;;;26.73;39.21;99126.91;6334992;22;43330;-83
2021/09/25 09:41:19;;;;;;;2.40;2.03;;;;;;;26.52;39.65;99122.31;6306368;22;39898;-82
2021/09/25 09:43:55;;;;;;;3.23;2.30;;;;;;;26.42;39.36;99119.06;6287633;22;41826;-83
2021/09/25 09:46:31;;;;;;;3.07;2.60;;;;;;;26.30;40.49;99101.56;6286846;22;42013;-84
2021/09/25 09:48:59;;;;;;;2.50;2.30;;;;;;;26.26;40.96;99094.81;6313869;22;42558;-83
2021/09/25 09:51:39;;;;;;;2.97;2.47;;;;;;;26.24;40.93;99086.00;6259798;22;38915;-83
2021/09/25 09:54:26;;;;;;;3.17;2.77;;;;;;;26.26;40.41;99094.81;6259366;22;40920;-83
2021/09/25 09:56:55;;;;;;;3.10;2.80;;;;;;;26.25;40.70;99096.66;6255092;22;43095;-84
2021/09/25 09:59:26;;;;;;;3.50;3.20;;;;;;;26.18;40.97;99109.34;6281203;22;42374;-83
2021/09/25 10:01:54;;;;;;;3.33;2.80;;;;;;;26.11;41.22;99087.50;6255314;22;38819;-83
2021/09/25 10:04:22;;;;;;;3.27;2.70;;;;;;;26.20;41.10;99071.13;6281033;22;42535;-83
2021/09/25 10:06:52;;;;;;;3.10;2.53;;;;;;;26.70;40.22;99098.28;6268702;22;43877;-84
2021/09/25 10:09:22;;;;;;;3.03;2.33;;;;;;;27.52;38.81;99109.50;6255425;22;42882;-84
2021/09/25 10:11:52;;;;;;;2.50;2.30;;;;;;;28.60;36.61;99121.63;6274873;22;40169;-85
2021/09/25 10:14:22;;;;;;;2.60;2.20;;;;;;;28.58;36.47;99113.66;6249282;22;41677;-85
2021/09/25 10:16:53;;;;;;;2.63;2.43;;;;;;;28.56;36.24;99121.19;6256120;22;42076;-84
2021/09/25 10:19:30;;;;;;;2.30;2.10;;;;;;;28.48;36.10;99126.84;6250914;22;43173;-85
2021/09/25 10:22:10;;;;;;;2.73;2.47;;;;;;;28.26;36.87;99108.94;6280314;22;41086;-85
2021/09/25 10:24:41;;;;;;;2.73;2.47;;;;;;;28.05;37.44;99114.47;6254408;22;40812;-84
2021/09/25 10:27:22;;;;;;;2.00;1.83;;;;;;;28.94;36.20;99110.63;6254187;22;41871;-84
2021/09/25 10:30:43;;;;;;;2.67;1.93;;;;;;;29.53;35.50;99054.44;6278270;22;41626;-85
2021/09/25 10:34:13;;;;;;;2.47;2.07;;;;;;;31.51;32.07;99119.91;6220066;22;39915;-84
2021/09/25 10:36:52;;;;;;;3.03;2.20;;;;;;;33.12;30.02;99146.94;6252888;22;41118;-85
2021/09/25 10:39:33;;;;;;;2.20;2.00;;;;;;;33.54;28.96;99153.25;6254612;22;42288;-83
2021/09/25 10:42:10;;;;;;;2.30;2.10;;;;;;;33.14;29.74;99129.16;6306310;22;41970;-85
2021/09/25 10:44:50;;;;;;;2.17;1.97;;;;;;;33.55;29.62;99149.44;6281096;22;39251;-83
2021/09/25 10:47:21;;;;;;;2.40;2.20;;;;;;;34.43;28.72;99157.56;6282089;22;41988;-83
2021/09/25 10:49:59;;;;;;;2.20;2.10;;;;;;;35.85;26.28;99154.75;6255950;22;41895;-84
2021/09/25 10:52:43;;;;;;;2.33;2.13;;;;;;;37.01;25.32;99168.44;6255743;22;42631;-84
2021/09/25 10:55:26;;;;;;;2.53;2.33;;;;;;;38.22;23.72;99171.44;6256458;22;38865;-84
2021/09/25 10:58:14;;;;;;;1.85;1.67;;;;;;;39.73;22.19;99189.66;6255457;22;40869;-85
2021/09/25 11:00:50;;;;;;;2.00;1.80;;;;;;;40.24;20.88;99172.13;6282029;22;43823;-85
2021/09/25 11:03:51;;;;;;;2.13;1.92;;;;;;;39.51;22.13;99164.16;6254893;22;41693;-84
2021/09/25 11:06:24;;;;;;;2.35;2.15;;;;;;;39.92;21.37;99170.53;6282018;22;39828;-84
2021/09/25 11:08:54;;;;;;;1.83;1.73;;;;;;;41.62;19.32;99160.06;6256228;22;40790;-84
2021/09/25 11:11:38;;;;;;;1.70;1.60;;;;;;;43.59;18.44;99176.34;6279884;22;43234;-83
2021/09/25 11:14:12;;;;;;;2.30;1.92;;;;;;;45.00;16.26;99183.13;6281726;22;42930;-84
2021/09/25 11:16:51;;;;;;;1.85;1.75;;;;;;;46.13;15.70;99170.81;6255890;22;38897;-84
2021/09/25 11:19:57;;;;;;;1.63;1.52;;;;;;;47.40;14.94;99172.69;6280037;22;40702;-86
2021/09/25 11:22:30;;;;;;;1.80;1.70;;;;;;;48.37;14.30;99165.38;6280724;22;43953;-85
2021/09/25 11:25:00;;;;;;;2.25;2.15;;;;;;;48.99;14.16;99164.72;6255926;22;42560;-86
2021/09/25 11:27:31;;;;;;;2.00;1.88;;;;;;;48.90;13.63;99155.53;6281535;22;39305;-86
2021/09/25 11:30:12;;;;;;;2.03;1.92;;;;;;;47.21;14.02;99150.56;6255306;22;41220;-85
2021/09/25 11:32:45;;;;;;;1.90;1.80;;;;;;;45.45;16.24;99127.25;6254973;22;42345;-86
2021/09/25 11:35:15;;;;;;;1.88;1.77;;;;;;;44.31;17.22;99123.63;6255996;22;41448;-86
2021/09/25 11:37:57;;;;;;;1.70;1.60;;;;;;;44.83;16.23;99137.41;6281051;22;39748;-85
2021/09/25 11:40:28;;;;;;;2.10;1.65;;;;;;;46.24;15.11;99132.19;6308559;22;41273;-86
2021/09/25 11:43:04;;;;;;;1.70;1.60;;;;;;;47.63;14.64;99139.63;6255641;22;42937;-85
2021/09/25 11:45:34;;;;;;;1.40;1.30;;;;;;;48.46;14.16;99118.41;6309288;22;42432;-85
2021/09/25 11:48:03;;;;;;;1.58;1.48;;;;;;;49.00;14.01;99128.97;6255462;22;39834;-87
2021/09/25 11:50:37;;;;;;;1.80;1.70;;;;;;;49.07;13.53;99130.06;6280834;22;40780;-86